createdAt,value
2019-06-10T06:26:48.086Z,624.38
2019-06-10T06:27:47.985Z,590.63
2019-06-10T06:28:47.942Z,613.13
2019-06-10T06:29:47.923Z,646.88
2019-06-10T06:30:47.854Z,680.63
2019-06-10T06:31:47.819Z,703.13
2019-06-10T06:32:47.840Z,691.88
2019-06-10T06:33:47.729Z,646.88
2019-06-10T06:34:47.683Z,607.50
2019-06-10T06:35:47.638Z,618.75
2019-06-10T06:36:47.597Z,652.50
2019-06-10T06:37:47.561Z,703.13
2019-06-10T06:38:47.573Z,663.75
2019-06-10T06:39:47.470Z,579.38
2019-06-10T06:40:47.428Z,523.13
2019-06-10T06:41:47.392Z,506.25
2019-06-10T06:42:47.344Z,511.88
2019-06-10T06:43:47.304Z,517.50
2019-06-10T06:44:47.288Z,523.13
2019-06-10T06:45:47.222Z,528.75
2019-06-10T06:46:47.179Z,540.00
2019-06-10T06:47:47.135Z,556.88
2019-06-10T06:48:47.143Z,545.63
2019-06-10T06:49:47.051Z,506.25
2019-06-10T06:51:01.964Z,461.25
2019-06-10T06:51:54.621Z,421.88
2019-06-10T06:53:18.887Z,405.00
2019-06-10T06:53:51.907Z,405.00
2019-06-10T06:54:46.872Z,405.00
2019-06-10T06:55:46.802Z,365.63
2019-06-10T06:56:46.757Z,331.88
2019-06-10T06:57:46.729Z,326.25
2019-06-10T06:58:46.674Z,410.63
2019-06-10T06:59:46.630Z,585.00
2019-06-10T07:01:00.113Z,798.75
2019-06-10T07:01:46.547Z,956.25
2019-06-10T07:02:46.506Z,973.13
2019-06-10T07:03:46.459Z,911.25
2019-06-10T07:04:46.420Z,866.25
2019-06-10T07:05:46.410Z,759.38
2019-06-10T07:06:46.336Z,686.25
2019-06-10T07:07:46.294Z,770.63
2019-06-10T07:09:00.277Z,905.63
2019-06-10T07:09:46.208Z,1080.00
2019-06-10T07:10:46.168Z,1153.13
2019-06-10T07:11:46.212Z,1068.75
2019-06-10T07:12:46.084Z,1029.38
2019-06-10T07:13:46.145Z,973.13
2019-06-10T07:14:46.001Z,928.13
2019-06-10T07:15:47.324Z,950.63
2019-06-10T07:16:46.778Z,961.88
2019-06-10T07:17:46.245Z,961.88
2019-06-10T07:18:50.094Z,1029.38
2019-06-10T07:19:45.924Z,1136.25
2019-06-10T07:20:45.989Z,1198.13
2019-06-10T07:22:06.644Z,1231.88
2019-06-10T07:22:46.586Z,1243.13
2019-06-10T07:23:47.036Z,1265.63
2019-06-10T07:24:47.484Z,1417.50
2019-06-10T07:25:47.587Z,1518.75
2019-06-10T07:26:51.133Z,1546.88
2019-06-10T07:27:46.949Z,1524.38
2019-06-10T07:28:47.439Z,1608.75
2019-06-10T07:29:47.179Z,1501.88
2019-06-10T07:30:51.053Z,1456.88
2019-06-10T07:31:49.325Z,1366.88
2019-06-10T07:32:47.312Z,1434.38
2019-06-10T07:33:47.211Z,1501.88
2019-06-10T07:34:46.937Z,1569.38
2019-06-10T07:35:45.467Z,1732.50
2019-06-10T07:36:45.490Z,1760.63
2019-06-10T07:37:46.102Z,1625.63
2019-06-10T07:38:48.690Z,1625.63
2019-06-10T07:39:45.400Z,1541.25
2019-06-10T07:40:45.776Z,1575.00
2019-06-10T07:41:47.764Z,1552.50
2019-06-10T07:42:45.437Z,1546.88
2019-06-10T07:43:49.428Z,1597.50
2019-06-10T07:44:45.308Z,1597.50
2019-06-10T07:45:47.798Z,1586.25
2019-06-10T07:46:45.725Z,1642.50
2019-06-10T07:47:45.673Z,1597.50
2019-06-10T07:48:47.845Z,1541.25
2019-06-10T07:49:45.638Z,1513.13
2019-06-10T07:50:45.832Z,1501.88
2019-06-10T07:51:46.303Z,1411.88
2019-06-10T07:52:46.564Z,1423.13
2019-06-10T07:53:46.585Z,1456.88
2019-06-10T07:54:45.341Z,1473.75
2019-06-10T07:55:46.399Z,1490.63
2019-06-10T07:56:49.843Z,1479.38
2019-06-10T07:57:45.566Z,1518.75
2019-06-10T07:58:47.488Z,1710.00
2019-06-10T07:59:45.824Z,1850.63
2019-06-10T08:00:48.036Z,1687.50
2019-06-10T08:01:50.974Z,1507.50
2019-06-10T08:02:45.892Z,1456.88
2019-06-10T08:03:46.422Z,1451.25
2019-06-10T08:04:45.835Z,1496.25
2019-06-10T08:05:46.042Z,1524.38
2019-06-10T08:06:45.700Z,1569.38
2019-06-10T08:07:47.053Z,1501.88
2019-06-10T08:08:45.394Z,1456.88
2019-06-10T08:09:45.579Z,1383.75
2019-06-10T08:10:46.066Z,1316.25
2019-06-10T08:11:46.542Z,1305.00
2019-06-10T08:12:44.799Z,2041.88
2019-06-10T08:13:46.160Z,1265.63
2019-06-10T08:14:45.300Z,1186.88
2019-06-10T08:15:45.980Z,1170.00
2019-06-10T08:16:46.501Z,1175.63
2019-06-10T08:17:45.626Z,1136.25
2019-06-10T08:19:14.240Z,1091.25
2019-06-10T08:19:49.070Z,1063.13
2019-06-10T08:20:45.073Z,1068.75
2019-06-10T08:21:45.918Z,1074.38
2019-06-10T08:22:50.971Z,1080.00
2019-06-10T08:23:45.636Z,1085.63
2019-06-10T08:24:45.210Z,1125.00
2019-06-10T08:25:46.402Z,1209.38
2019-06-10T08:26:45.272Z,1327.50
2019-06-10T08:27:45.389Z,1479.38
2019-06-10T08:28:46.466Z,1586.25
2019-06-10T08:29:46.132Z,1563.75
2019-06-10T08:30:44.722Z,1417.50
2019-06-10T08:31:47.584Z,1350.00
2019-06-10T08:32:45.282Z,1383.75
2019-06-10T08:33:46.180Z,1400.63
2019-06-10T08:34:45.941Z,1473.75
2019-06-10T08:35:53.618Z,1597.50
2019-06-10T08:36:47.115Z,1822.50
2019-06-10T08:37:43.301Z,1822.50
2019-06-10T08:38:45.045Z,1839.38
2019-06-10T08:39:44.341Z,1968.75
2019-06-10T08:40:45.012Z,1800.00
2019-06-10T08:41:45.569Z,1766.25
2019-06-10T08:42:44.131Z,1721.25
2019-06-10T08:43:45.268Z,1777.50
2019-06-10T08:44:43.962Z,3796.88
2019-06-10T08:45:44.157Z,1721.25
2019-06-10T08:46:44.990Z,1378.13
2019-06-10T08:47:45.664Z,1310.63
2019-06-10T08:48:45.869Z,1490.63
2019-06-10T08:49:44.562Z,1614.38
2019-06-10T08:50:46.547Z,1867.50
2019-06-10T08:51:45.457Z,1293.75
2019-06-10T08:52:56.860Z,1260.00
2019-06-10T08:53:45.025Z,1366.88
2019-06-10T08:54:47.215Z,1524.38
2019-06-10T08:55:44.118Z,1428.75
2019-06-10T08:56:46.844Z,1361.25
2019-06-10T08:57:44.127Z,1732.50
2019-06-10T08:58:45.738Z,1985.63
2019-06-10T08:59:44.811Z,2390.63
2019-06-10T09:00:45.064Z,1968.75
2019-06-10T09:01:45.984Z,1563.75
2019-06-10T09:02:45.197Z,1738.13
2019-06-10T09:03:45.477Z,1985.63
2019-06-10T09:04:45.585Z,1681.88
2019-06-10T09:05:46.050Z,1884.38
2019-06-10T09:06:46.317Z,2463.75
2019-06-10T09:07:45.866Z,4578.75
2019-06-10T09:08:45.445Z,3875.63
2019-06-10T09:09:45.776Z,3712.50
2019-06-10T09:10:45.621Z,2778.75
2019-06-10T09:11:46.882Z,3026.25
2019-06-10T09:12:45.470Z,2317.50
2019-06-10T09:13:43.788Z,2351.25
2019-06-10T09:14:44.023Z,3285.00
2019-06-10T09:15:43.770Z,3436.88
2019-06-10T09:16:44.392Z,5985.00
2019-06-10T09:17:44.384Z,4865.63
2019-06-10T09:18:44.463Z,5180.63
2019-06-10T09:19:42.070Z,4348.13
2019-06-10T09:20:44.926Z,6710.63
2019-06-10T09:21:45.930Z,2745.00
2019-06-10T09:22:42.243Z,3172.50
2019-06-10T09:23:43.206Z,5343.75
2019-06-10T09:24:42.698Z,2851.88
2019-06-10T09:25:45.245Z,2891.25
2019-06-10T09:26:44.480Z,2728.13
2019-06-10T09:27:42.584Z,4033.13
2019-06-10T09:28:45.114Z,3076.88
2019-06-10T09:29:44.667Z,2958.75
2019-06-10T09:30:46.858Z,7143.75
2019-06-10T09:31:45.622Z,5782.50
2019-06-10T09:32:42.629Z,3560.63
2019-06-10T09:33:42.727Z,3026.25
2019-06-10T09:34:43.056Z,2480.63
2019-06-10T09:35:44.118Z,2491.88
2019-06-10T09:36:42.231Z,3645.00
2019-06-10T09:37:42.655Z,3093.75
2019-06-10T09:38:41.785Z,3071.25
2019-06-10T09:39:43.721Z,3830.63
2019-06-10T09:40:41.778Z,4528.13
2019-06-10T09:41:47.583Z,4246.88
2019-06-10T09:42:45.586Z,3110.63
2019-06-10T09:43:42.668Z,2851.88
2019-06-10T09:44:45.106Z,2823.75
2019-06-10T09:45:41.865Z,2711.25
2019-06-10T09:46:44.071Z,3048.75
2019-06-10T09:47:44.478Z,2463.75
2019-06-10T09:48:44.362Z,2086.88
2019-06-10T09:49:41.292Z,1878.75
2019-06-10T09:50:44.603Z,1749.38
2019-06-10T09:51:44.465Z,2081.25
2019-06-10T09:52:41.583Z,2030.63
2019-06-10T09:53:48.120Z,2064.38
2019-06-10T09:54:42.935Z,1968.75
2019-06-10T09:55:41.651Z,1929.38
2019-06-10T09:56:42.780Z,1895.63
2019-06-10T09:57:41.283Z,1867.50
2019-06-10T09:58:40.795Z,1558.13
2019-06-10T09:59:41.330Z,1468.13
2019-06-10T10:00:41.818Z,1333.13
2019-06-10T10:01:41.519Z,1175.63
2019-06-10T10:02:44.951Z,1074.38
2019-06-10T10:03:41.964Z,1046.25
2019-06-10T10:04:40.967Z,1029.38
2019-06-10T10:05:43.148Z,990.00
2019-06-10T10:06:41.450Z,911.25
2019-06-10T10:07:42.151Z,810.00
2019-06-10T10:08:41.353Z,759.38
2019-06-10T10:09:42.091Z,736.88
2019-06-10T10:10:39.701Z,748.13
2019-06-10T10:11:42.421Z,765.00
2019-06-10T10:12:39.633Z,804.38
2019-06-10T10:13:42.455Z,843.75
2019-06-10T10:14:39.578Z,849.38
2019-06-10T10:15:39.519Z,821.25
2019-06-10T10:16:39.485Z,815.63
2019-06-10T10:17:39.457Z,815.63
2019-06-10T10:18:39.454Z,843.75
2019-06-10T10:19:39.379Z,928.13
2019-06-10T10:20:39.369Z,1074.38
2019-06-10T10:21:41.330Z,1305.00
2019-06-10T10:22:39.280Z,1642.50
2019-06-10T10:23:52.534Z,1980.00
2019-06-10T10:24:39.212Z,2188.13
2019-06-10T10:25:39.173Z,2491.88
2019-06-10T10:26:39.165Z,2801.25
2019-06-10T10:27:39.101Z,3223.13
2019-06-10T10:28:39.067Z,3740.63
2019-06-10T10:29:39.030Z,3555.00
2019-06-10T10:30:39.032Z,4117.50
2019-06-10T10:31:38.960Z,7346.25
2019-06-10T10:32:38.927Z,6395.63
2019-06-10T10:33:38.892Z,3121.88
2019-06-10T10:34:38.856Z,2081.25
2019-06-10T10:35:38.915Z,1974.38
2019-06-10T10:36:38.809Z,1878.75
2019-06-10T10:37:38.757Z,1788.75
2019-06-10T10:38:38.797Z,1755.00
2019-06-10T10:39:38.690Z,1648.13
2019-06-10T10:40:38.664Z,1608.75
2019-06-10T10:41:38.786Z,1530.00
2019-06-10T10:42:44.810Z,1608.75
2019-06-10T10:43:38.557Z,1856.25
2019-06-10T10:44:38.525Z,3082.50
2019-06-10T10:45:38.493Z,3661.88
2019-06-10T10:46:38.458Z,2210.63
2019-06-10T10:47:38.907Z,1996.88
2019-06-10T10:48:38.395Z,1766.25
2019-06-10T10:49:38.364Z,1507.50
2019-06-10T10:50:38.328Z,1260.00
2019-06-10T10:51:38.426Z,1158.75
2019-06-10T10:52:38.258Z,1170.00
2019-06-10T10:53:38.665Z,1231.88
2019-06-10T10:54:38.190Z,1226.25
2019-06-10T10:55:38.157Z,1209.38
2019-06-10T10:56:38.124Z,1186.88
2019-06-10T10:57:38.090Z,1091.25
2019-06-10T10:58:38.060Z,950.63
2019-06-10T10:59:38.044Z,793.13
2019-06-10T11:00:37.989Z,697.50
2019-06-10T11:01:37.990Z,663.75
2019-06-10T11:02:37.917Z,663.75
2019-06-10T11:03:37.883Z,691.88
2019-06-10T11:04:37.854Z,708.75
2019-06-10T11:05:37.833Z,675.00
2019-06-10T11:06:37.785Z,573.75
2019-06-10T11:07:37.745Z,534.38
2019-06-10T11:08:37.707Z,579.38
2019-06-10T11:09:37.673Z,579.38
2019-06-10T11:10:37.640Z,573.75
2019-06-10T11:11:37.624Z,540.00
2019-06-10T11:12:37.565Z,500.63
2019-06-10T11:13:37.530Z,478.13
2019-06-10T11:14:37.495Z,466.88
2019-06-10T11:15:37.454Z,466.88
2019-06-10T11:16:37.422Z,450.00
2019-06-10T11:17:37.573Z,421.88
2019-06-10T11:18:37.350Z,388.13
2019-06-10T11:19:37.307Z,354.38
2019-06-10T11:20:37.280Z,343.13
2019-06-10T11:21:37.231Z,337.50
2019-06-10T11:22:37.196Z,360.00
2019-06-10T11:23:37.187Z,365.63
2019-06-10T11:24:41.169Z,360.00
2019-06-10T11:25:37.091Z,354.38
2019-06-10T11:26:37.046Z,343.13
2019-06-10T11:27:37.008Z,315.00
2019-06-10T11:28:37.247Z,292.50
2019-06-10T11:29:36.929Z,258.75
2019-06-10T11:30:36.890Z,236.25
2019-06-10T11:31:36.850Z,219.38
2019-06-10T11:32:36.811Z,213.75
2019-06-10T11:33:36.772Z,202.50
2019-06-10T11:34:36.758Z,196.88
2019-06-10T11:35:36.699Z,202.50
2019-06-10T11:36:36.712Z,208.13
2019-06-10T11:37:36.619Z,219.38
2019-06-10T11:38:36.578Z,213.75
2019-06-10T11:39:38.672Z,196.88
2019-06-10T11:40:36.496Z,174.38
2019-06-10T11:41:36.458Z,151.88
2019-06-10T11:42:36.446Z,140.63
2019-06-10T11:43:36.377Z,140.63
2019-06-10T11:44:36.335Z,140.63
2019-06-10T11:45:36.298Z,151.88
2019-06-10T11:46:36.257Z,174.38
2019-06-10T11:47:36.220Z,191.25
2019-06-10T11:48:36.213Z,202.50
2019-06-10T11:49:36.135Z,225.00
2019-06-10T11:50:36.094Z,225.00
2019-06-10T11:51:36.442Z,258.75
2019-06-10T11:52:36.013Z,264.38
2019-06-10T11:53:35.974Z,298.13
2019-06-10T11:54:50.917Z,320.63
2019-06-10T11:55:35.893Z,337.50
2019-06-10T11:56:35.853Z,298.13
2019-06-10T11:57:35.834Z,264.38
2019-06-10T11:58:35.770Z,202.50
2019-06-10T11:59:35.732Z,135.00
2019-06-10T12:00:35.693Z,95.63
2019-06-10T12:01:35.651Z,78.75
2019-06-10T12:02:35.648Z,78.75
2019-06-10T12:03:35.569Z,101.25
2019-06-10T12:04:35.531Z,140.63
2019-06-10T12:05:35.487Z,157.50
2019-06-10T12:06:35.445Z,168.75
2019-06-10T12:07:35.404Z,180.00
2019-06-10T12:08:35.390Z,185.63
2019-06-10T12:09:35.323Z,185.63
2019-06-10T12:10:35.284Z,174.38
2019-06-10T12:11:35.245Z,163.13
2019-06-10T12:12:35.205Z,174.38
2019-06-10T12:13:35.164Z,196.88
2019-06-10T12:14:35.142Z,219.38
2019-06-10T12:16:09.655Z,258.75
2019-06-10T12:17:46.896Z,365.63
2019-06-10T12:18:34.954Z,421.88
2019-06-10T12:19:34.917Z,495.00
2019-06-10T12:20:35.062Z,556.88
2019-06-10T12:21:34.836Z,652.50
2019-06-10T12:22:34.791Z,793.13
2019-06-10T12:23:34.760Z,916.88
2019-06-10T12:24:34.710Z,1063.13
2019-06-10T12:25:39.338Z,1406.25
2019-06-10T12:26:34.647Z,1721.25
2019-06-10T12:27:34.595Z,2058.75
2019-06-10T12:28:34.548Z,1766.25
2019-06-10T12:29:35.009Z,1648.13
2019-06-10T12:30:34.525Z,1468.13
2019-06-10T12:31:34.778Z,1260.00
2019-06-10T12:32:34.424Z,1091.25
2019-06-10T12:33:34.343Z,1023.75
2019-06-10T12:34:34.307Z,1018.13
2019-06-10T12:35:42.296Z,1012.50
2019-06-10T12:36:34.234Z,995.63
2019-06-10T12:37:34.534Z,978.75
2019-06-10T12:38:34.189Z,922.50
2019-06-10T12:39:35.040Z,826.88
2019-06-10T12:40:34.072Z,742.50
2019-06-10T12:41:34.039Z,714.38
2019-06-10T12:42:33.989Z,675.00
2019-06-10T12:43:33.951Z,624.38
2019-06-10T12:44:33.942Z,568.13
2019-06-10T12:45:33.874Z,540.00
2019-06-10T12:46:33.833Z,551.25
2019-06-10T12:47:34.115Z,590.63
2019-06-10T12:48:34.428Z,635.63
2019-06-10T12:49:33.718Z,652.50
2019-06-10T12:50:33.700Z,618.75
2019-06-10T12:51:33.637Z,545.63
2019-06-10T12:52:33.599Z,461.25
2019-06-10T12:53:33.691Z,399.38
2019-06-10T12:54:33.519Z,354.38
2019-06-10T12:55:42.309Z,309.38
2019-06-10T12:56:33.464Z,292.50
2019-06-10T12:57:33.403Z,286.88
2019-06-10T12:58:33.698Z,292.50
2019-06-10T12:59:33.321Z,292.50
2019-06-10T13:00:33.336Z,292.50
2019-06-10T13:01:33.245Z,292.50
2019-06-10T13:02:34.637Z,286.88
2019-06-10T13:03:33.939Z,286.88
2019-06-10T13:04:33.124Z,286.88
2019-06-10T13:05:33.292Z,275.63
2019-06-10T13:06:33.044Z,258.75
2019-06-10T13:07:33.009Z,247.50
2019-06-10T13:08:33.216Z,247.50
2019-06-10T13:09:33.835Z,253.13
2019-06-10T13:10:33.336Z,253.13
2019-06-10T13:11:33.414Z,264.38
2019-06-10T13:12:33.352Z,286.88
2019-06-10T13:13:32.922Z,315.00
2019-06-10T13:14:32.786Z,343.13
2019-06-10T13:15:32.954Z,354.38
2019-06-10T13:16:32.646Z,360.00
2019-06-10T13:17:32.608Z,365.63
2019-06-10T13:18:32.567Z,399.38
2019-06-10T13:19:34.340Z,455.63
2019-06-10T13:20:32.509Z,511.88
2019-06-10T13:21:32.957Z,573.75
2019-06-10T13:22:32.529Z,652.50
2019-06-10T13:23:35.130Z,770.63
2019-06-10T13:24:33.780Z,939.38
2019-06-10T13:25:33.462Z,1051.88
2019-06-10T13:26:35.165Z,1029.38
2019-06-10T13:27:32.204Z,967.50
2019-06-10T13:28:32.610Z,945.00
2019-06-10T13:29:33.174Z,995.63
2019-06-10T13:30:34.185Z,1108.13
2019-06-10T13:31:33.672Z,1147.50
2019-06-10T13:34:08.849Z,956.25
2019-06-10T13:35:06.035Z,967.50
2019-06-10T13:36:05.436Z,928.13
2019-06-10T13:37:06.788Z,961.88
2019-06-10T13:38:05.678Z,956.25
2019-06-10T13:39:06.647Z,849.38
2019-06-10T13:40:06.709Z,697.50
2019-06-10T13:41:04.257Z,579.38
2019-06-10T13:42:07.750Z,556.88
2019-06-10T13:43:03.906Z,562.50
2019-06-10T13:44:04.184Z,568.13
2019-06-10T13:45:06.375Z,573.75
2019-06-10T13:46:06.692Z,596.25
2019-06-10T13:47:07.054Z,624.38
2019-06-10T13:48:07.791Z,652.50
2019-06-10T13:49:06.905Z,646.88
2019-06-10T13:50:06.218Z,618.75
2019-06-10T13:51:08.327Z,624.38
2019-06-10T13:52:07.906Z,669.38
2019-06-10T13:53:04.864Z,731.25
2019-06-10T13:54:05.373Z,810.00
2019-06-10T13:55:04.015Z,871.88
2019-06-10T13:56:30.425Z,945.00
2019-06-10T13:57:05.003Z,1023.75
2019-06-10T13:58:06.184Z,1125.00
2019-06-10T13:59:04.167Z,1254.38
2019-06-10T14:00:05.619Z,1456.88
2019-06-10T14:01:05.305Z,1440.00
2019-06-10T14:02:06.380Z,1333.13
2019-06-10T14:03:06.341Z,1181.25
2019-06-10T14:04:09.745Z,1068.75
2019-06-10T14:05:10.279Z,1068.75
2019-06-10T14:06:12.958Z,1141.88
2019-06-10T14:07:07.385Z,1203.75
2019-06-10T14:08:05.415Z,1226.25
2019-06-10T14:09:07.685Z,1158.75
2019-06-10T14:10:07.252Z,1046.25
2019-06-10T14:11:06.985Z,961.88
2019-06-10T14:12:03.838Z,916.88
2019-06-10T14:13:03.971Z,877.50
2019-06-10T14:14:03.706Z,832.50
2019-06-10T14:15:04.528Z,765.00
2019-06-10T14:16:03.451Z,691.88
2019-06-10T14:17:03.807Z,630.00
2019-06-10T14:18:05.213Z,601.88
2019-06-10T14:19:05.855Z,551.25
2019-06-10T14:20:03.631Z,444.38
2019-06-10T14:21:05.024Z,343.13
2019-06-10T14:22:04.462Z,303.75
2019-06-10T14:23:02.578Z,303.75
2019-06-10T14:24:02.230Z,326.25
2019-06-10T14:25:03.871Z,337.50
2019-06-10T14:26:03.226Z,337.50
2019-06-10T14:27:03.298Z,320.63
2019-06-10T14:28:04.360Z,309.38
2019-06-10T14:29:03.027Z,303.75
2019-06-10T14:30:04.600Z,303.75
2019-06-10T14:31:05.129Z,298.13
2019-06-10T14:32:02.629Z,292.50
2019-06-10T14:33:02.889Z,298.13
2019-06-10T14:34:04.278Z,286.88
2019-06-10T14:35:01.756Z,264.38
2019-06-10T14:37:39.139Z,185.63
2019-06-10T14:38:33.430Z,157.50
2019-06-10T14:39:33.641Z,135.00
2019-06-10T14:40:33.386Z,129.38
2019-06-10T14:41:33.617Z,140.63
2019-06-10T14:42:33.266Z,146.25
2019-06-10T14:43:33.435Z,146.25
2019-06-10T14:44:33.188Z,140.63
2019-06-10T14:45:33.233Z,140.63
2019-06-10T14:46:33.108Z,151.88
2019-06-10T14:47:34.497Z,168.75
2019-06-10T14:48:33.743Z,180.00
2019-06-10T14:49:33.110Z,213.75
2019-06-10T14:50:32.945Z,208.13
2019-06-10T14:51:32.917Z,191.25
2019-06-10T14:52:32.864Z,174.38
2019-06-10T14:53:33.739Z,157.50
2019-06-10T14:54:32.783Z,180.00
2019-06-10T14:55:34.018Z,225.00
2019-06-10T14:56:33.281Z,275.63
2019-06-10T14:57:33.470Z,315.00
